sensor_id;sensor_type;location;lat;lon;timestamp;temperature;humidity
39255;DHT22;24957;51.386;-2.352;2022-07-15T00:01:31;16.40;93.80
39255;DHT22;24957;51.386;-2.352;2022-07-15T00:03:56;16.30;94.00
39255;DHT22;24957;51.386;-2.352;2022-07-15T00:06:22;16.30;94.20
39255;DHT22;24957;51.386;-2.352;2022-07-15T00:08:48;16.40;93.80
39255;DHT22;24957;51.386;-2.352;2022-07-15T00:11:15;16.50;94.20
39255;DHT22;24957;51.386;-2.352;2022-07-15T00:13:40;16.60;93.20
39255;DHT22;24957;51.386;-2.352;2022-07-15T00:16:06;16.60;92.60
39255;DHT22;24957;51.386;-2.352;2022-07-15T00:18:31;16.50;93.10
39255;DHT22;24957;51.386;-2.352;2022-07-15T00:20:57;16.50;93.80
39255;DHT22;24957;51.386;-2.352;2022-07-15T00:23:22;16.70;93.40
39255;DHT22;24957;51.386;-2.352;2022-07-15T00:25:48;16.80;93.10
39255;DHT22;24957;51.386;-2.352;2022-07-15T00:28:13;16.90;92.00
39255;DHT22;24957;51.386;-2.352;2022-07-15T00:30:40;16.70;91.70
39255;DHT22;24957;51.386;-2.352;2022-07-15T00:33:07;16.50;92.20
39255;DHT22;24957;51.386;-2.352;2022-07-15T00:35:33;16.40;92.80
39255;DHT22;24957;51.386;-2.352;2022-07-15T00:37:59;16.30;94.10
39255;DHT22;24957;51.386;-2.352;2022-07-15T00:40:25;16.30;93.20
39255;DHT22;24957;51.386;-2.352;2022-07-15T00:42:50;16.30;93.20
39255;DHT22;24957;51.386;-2.352;2022-07-15T00:45:17;16.30;93.50
39255;DHT22;24957;51.386;-2.352;2022-07-15T00:47:43;16.10;93.80
39255;DHT22;24957;51.386;-2.352;2022-07-15T00:50:10;16.10;94.70
39255;DHT22;24957;51.386;-2.352;2022-07-15T00:52:36;16.10;94.50
39255;DHT22;24957;51.386;-2.352;2022-07-15T00:55:04;16.00;95.30
39255;DHT22;24957;51.386;-2.352;2022-07-15T00:57:31;16.00;95.30
39255;DHT22;24957;51.386;-2.352;2022-07-15T00:59:59;16.00;94.80
39255;DHT22;24957;51.386;-2.352;2022-07-15T01:02:26;16.00;95.00
39255;DHT22;24957;51.386;-2.352;2022-07-15T01:04:52;16.10;95.10
39255;DHT22;24957;51.386;-2.352;2022-07-15T01:07:18;16.10;94.60
39255;DHT22;24957;51.386;-2.352;2022-07-15T01:09:43;16.00;94.60
39255;DHT22;24957;51.386;-2.352;2022-07-15T01:12:09;16.10;95.90
39255;DHT22;24957;51.386;-2.352;2022-07-15T01:14:35;16.20;95.80
39255;DHT22;24957;51.386;-2.352;2022-07-15T01:17:01;16.30;96.00
39255;DHT22;24957;51.386;-2.352;2022-07-15T01:19:27;16.30;95.20
39255;DHT22;24957;51.386;-2.352;2022-07-15T01:21:52;16.30;95.10
39255;DHT22;24957;51.386;-2.352;2022-07-15T01:24:18;16.10;95.60
39255;DHT22;24957;51.386;-2.352;2022-07-15T01:26:43;15.90;96.90
39255;DHT22;24957;51.386;-2.352;2022-07-15T01:29:09;15.70;98.20
39255;DHT22;24957;51.386;-2.352;2022-07-15T01:31:35;15.60;99.50
39255;DHT22;24957;51.386;-2.352;2022-07-15T01:34:00;15.60;99.90
39255;DHT22;24957;51.386;-2.352;2022-07-15T01:36:26;15.40;99.90
39255;DHT22;24957;51.386;-2.352;2022-07-15T01:38:51;15.30;99.90
39255;DHT22;24957;51.386;-2.352;2022-07-15T01:41:17;15.30;99.90
39255;DHT22;24957;51.386;-2.352;2022-07-15T01:43:42;15.20;99.90
39255;DHT22;24957;51.386;-2.352;2022-07-15T01:46:08;15.20;99.90
39255;DHT22;24957;51.386;-2.352;2022-07-15T01:48:33;15.10;99.90
39255;DHT22;24957;51.386;-2.352;2022-07-15T01:51:18;15.20;99.90
39255;DHT22;24957;51.386;-2.352;2022-07-15T01:53:43;15.20;99.90
39255;DHT22;24957;51.386;-2.352;2022-07-15T01:56:09;15.10;99.90
39255;DHT22;24957;51.386;-2.352;2022-07-15T01:58:34;14.90;99.90
39255;DHT22;24957;51.386;-2.352;2022-07-15T02:01:00;14.80;99.90
39255;DHT22;24957;51.386;-2.352;2022-07-15T02:03:26;14.60;99.90
39255;DHT22;24957;51.386;-2.352;2022-07-15T02:05:51;14.50;99.90
39255;DHT22;24957;51.386;-2.352;2022-07-15T02:08:17;14.50;99.90
39255;DHT22;24957;51.386;-2.352;2022-07-15T02:10:43;14.50;99.90
39255;DHT22;24957;51.386;-2.352;2022-07-15T02:13:09;14.40;99.90
39255;DHT22;24957;51.386;-2.352;2022-07-15T02:15:35;14.30;99.90
39255;DHT22;24957;51.386;-2.352;2022-07-15T02:18:01;14.20;99.90
39255;DHT22;24957;51.386;-2.352;2022-07-15T02:20:27;14.10;99.90
39255;DHT22;24957;51.386;-2.352;2022-07-15T02:22:53;14.10;99.90
39255;DHT22;24957;51.386;-2.352;2022-07-15T02:25:19;14.00;99.90
39255;DHT22;24957;51.386;-2.352;2022-07-15T02:27:44;13.90;99.90
39255;DHT22;24957;51.386;-2.352;2022-07-15T02:30:10;13.90;99.90
39255;DHT22;24957;51.386;-2.352;2022-07-15T02:32:37;13.90;99.90
39255;DHT22;24957;51.386;-2.352;2022-07-15T02:35:03;13.90;99.90
39255;DHT22;24957;51.386;-2.352;2022-07-15T02:37:28;14.00;99.90
39255;DHT22;24957;51.386;-2.352;2022-07-15T02:39:54;13.80;99.90
39255;DHT22;24957;51.386;-2.352;2022-07-15T02:42:19;13.70;99.90
39255;DHT22;24957;51.386;-2.352;2022-07-15T02:44:45;13.60;99.90
39255;DHT22;24957;51.386;-2.352;2022-07-15T02:47:11;13.60;99.90
39255;DHT22;24957;51.386;-2.352;2022-07-15T02:49:36;13.60;99.90
39255;DHT22;24957;51.386;-2.352;2022-07-15T02:52:02;13.40;99.90
39255;DHT22;24957;51.386;-2.352;2022-07-15T02:54:27;13.30;99.90
39255;DHT22;24957;51.386;-2.352;2022-07-15T02:56:53;13.20;99.90
39255;DHT22;24957;51.386;-2.352;2022-07-15T02:59:18;13.20;99.90
39255;DHT22;24957;51.386;-2.352;2022-07-15T03:01:44;13.20;99.90
39255;DHT22;24957;51.386;-2.352;2022-07-15T03:04:10;13.20;99.90
39255;DHT22;24957;51.386;-2.352;2022-07-15T03:06:35;13.00;99.90
39255;DHT22;24957;51.386;-2.352;2022-07-15T03:09:01;13.00;99.90
39255;DHT22;24957;51.386;-2.352;2022-07-15T03:11:27;13.00;99.90
39255;DHT22;24957;51.386;-2.352;2022-07-15T03:13:52;12.90;99.90
39255;DHT22;24957;51.386;-2.352;2022-07-15T03:16:18;13.00;99.90
39255;DHT22;24957;51.386;-2.352;2022-07-15T03:18:43;12.90;99.90
39255;DHT22;24957;51.386;-2.352;2022-07-15T03:21:09;12.80;99.90
39255;DHT22;24957;51.386;-2.352;2022-07-15T03:23:35;12.90;99.90
39255;DHT22;24957;51.386;-2.352;2022-07-15T03:26:00;12.80;99.90
39255;DHT22;24957;51.386;-2.352;2022-07-15T03:28:26;12.80;99.90
39255;DHT22;24957;51.386;-2.352;2022-07-15T03:30:52;12.70;99.90
39255;DHT22;24957;51.386;-2.352;2022-07-15T03:33:17;12.70;99.90
39255;DHT22;24957;51.386;-2.352;2022-07-15T03:35:43;12.70;99.90
39255;DHT22;24957;51.386;-2.352;2022-07-15T03:38:09;12.70;99.90
39255;DHT22;24957;51.386;-2.352;2022-07-15T03:40:34;12.60;99.90
39255;DHT22;24957;51.386;-2.352;2022-07-15T03:43:00;12.60;99.90
39255;DHT22;24957;51.386;-2.352;2022-07-15T03:45:25;12.60;99.90
39255;DHT22;24957;51.386;-2.352;2022-07-15T03:47:51;12.50;99.90
39255;DHT22;24957;51.386;-2.352;2022-07-15T03:50:16;12.50;99.90
39255;DHT22;24957;51.386;-2.352;2022-07-15T03:52:42;12.50;99.90
39255;DHT22;24957;51.386;-2.352;2022-07-15T03:55:08;12.30;99.90
39255;DHT22;24957;51.386;-2.352;2022-07-15T03:57:35;12.20;99.90
39255;DHT22;24957;51.386;-2.352;2022-07-15T04:00:00;12.20;99.90
39255;DHT22;24957;51.386;-2.352;2022-07-15T04:02:26;12.10;99.90
39255;DHT22;24957;51.386;-2.352;2022-07-15T04:04:52;12.00;99.90
39255;DHT22;24957;51.386;-2.352;2022-07-15T04:07:17;12.00;99.90
39255;DHT22;24957;51.386;-2.352;2022-07-15T04:09:43;12.00;99.90
39255;DHT22;24957;51.386;-2.352;2022-07-15T04:12:08;12.00;99.90
39255;DHT22;24957;51.386;-2.352;2022-07-15T04:14:35;11.90;99.90
39255;DHT22;24957;51.386;-2.352;2022-07-15T04:17:01;11.90;99.90
39255;DHT22;24957;51.386;-2.352;2022-07-15T04:19:26;11.90;99.90
39255;DHT22;24957;51.386;-2.352;2022-07-15T04:21:52;11.90;99.90
39255;DHT22;24957;51.386;-2.352;2022-07-15T04:24:17;11.90;99.90
39255;DHT22;24957;51.386;-2.352;2022-07-15T04:26:43;11.90;99.90
39255;DHT22;24957;51.386;-2.352;2022-07-15T04:29:09;11.90;99.90
39255;DHT22;24957;51.386;-2.352;2022-07-15T04:31:34;11.90;99.90
39255;DHT22;24957;51.386;-2.352;2022-07-15T04:34:00;11.90;99.90
39255;DHT22;24957;51.386;-2.352;2022-07-15T04:36:25;12.00;99.90
39255;DHT22;24957;51.386;-2.352;2022-07-15T04:38:51;12.10;99.90
39255;DHT22;24957;51.386;-2.352;2022-07-15T04:41:16;12.10;99.90
39255;DHT22;24957;51.386;-2.352;2022-07-15T04:43:42;12.10;99.90
39255;DHT22;24957;51.386;-2.352;2022-07-15T04:46:08;12.10;99.90
39255;DHT22;24957;51.386;-2.352;2022-07-15T04:48:33;12.20;99.90
39255;DHT22;24957;51.386;-2.352;2022-07-15T04:51:18;12.20;99.90
39255;DHT22;24957;51.386;-2.352;2022-07-15T04:53:43;12.20;99.90
39255;DHT22;24957;51.386;-2.352;2022-07-15T04:56:09;12.20;99.90
39255;DHT22;24957;51.386;-2.352;2022-07-15T04:58:35;12.20;99.90
39255;DHT22;24957;51.386;-2.352;2022-07-15T05:01:00;12.20;99.90
39255;DHT22;24957;51.386;-2.352;2022-07-15T05:03:26;12.30;99.90
39255;DHT22;24957;51.386;-2.352;2022-07-15T05:05:52;12.30;99.90
39255;DHT22;24957;51.386;-2.352;2022-07-15T05:08:17;12.20;99.90
39255;DHT22;24957;51.386;-2.352;2022-07-15T05:10:43;12.20;99.90
39255;DHT22;24957;51.386;-2.352;2022-07-15T05:13:09;12.30;99.90
39255;DHT22;24957;51.386;-2.352;2022-07-15T05:15:37;12.40;99.90
39255;DHT22;24957;51.386;-2.352;2022-07-15T05:18:03;12.40;99.90
39255;DHT22;24957;51.386;-2.352;2022-07-15T05:20:29;12.40;99.90
39255;DHT22;24957;51.386;-2.352;2022-07-15T05:22:54;12.50;99.90
39255;DHT22;24957;51.386;-2.352;2022-07-15T05:25:20;12.60;99.90
39255;DHT22;24957;51.386;-2.352;2022-07-15T05:27:46;12.70;99.90
39255;DHT22;24957;51.386;-2.352;2022-07-15T05:30:11;12.80;99.90
39255;DHT22;24957;51.386;-2.352;2022-07-15T05:32:43;12.90;99.90
39255;DHT22;24957;51.386;-2.352;2022-07-15T05:35:08;13.10;99.90
39255;DHT22;24957;51.386;-2.352;2022-07-15T05:37:37;13.10;99.90
39255;DHT22;24957;51.386;-2.352;2022-07-15T05:40:05;13.30;99.90
39255;DHT22;24957;51.386;-2.352;2022-07-15T05:42:31;13.50;99.90
39255;DHT22;24957;51.386;-2.352;2022-07-15T05:44:57;13.70;99.90
39255;DHT22;24957;51.386;-2.352;2022-07-15T05:47:23;14.00;99.90
39255;DHT22;24957;51.386;-2.352;2022-07-15T05:49:48;14.20;99.90
39255;DHT22;24957;51.386;-2.352;2022-07-15T05:52:14;14.40;99.90
39255;DHT22;24957;51.386;-2.352;2022-07-15T05:54:39;14.60;99.90
39255;DHT22;24957;51.386;-2.352;2022-07-15T05:57:05;14.80;99.90
39255;DHT22;24957;51.386;-2.352;2022-07-15T05:59:30;14.90;99.90
39255;DHT22;24957;51.386;-2.352;2022-07-15T06:01:57;15.00;99.90
39255;DHT22;24957;51.386;-2.352;2022-07-15T06:04:23;15.20;99.90
39255;DHT22;24957;51.386;-2.352;2022-07-15T06:06:52;15.20;99.90
39255;DHT22;24957;51.386;-2.352;2022-07-15T06:09:19;15.20;99.90
39255;DHT22;24957;51.386;-2.352;2022-07-15T06:11:44;15.20;99.90
39255;DHT22;24957;51.386;-2.352;2022-07-15T06:14:10;15.40;99.90
39255;DHT22;24957;51.386;-2.352;2022-07-15T06:16:35;15.40;99.90
39255;DHT22;24957;51.386;-2.352;2022-07-15T06:19:01;15.50;99.90
39255;DHT22;24957;51.386;-2.352;2022-07-15T06:21:27;15.40;99.90
39255;DHT22;24957;51.386;-2.352;2022-07-15T06:23:52;15.20;99.90
39255;DHT22;24957;51.386;-2.352;2022-07-15T06:26:18;15.10;99.90
39255;DHT22;24957;51.386;-2.352;2022-07-15T06:28:44;15.20;99.90
39255;DHT22;24957;51.386;-2.352;2022-07-15T06:31:09;15.30;99.90
39255;DHT22;24957;51.386;-2.352;2022-07-15T06:33:35;15.40;99.90
39255;DHT22;24957;51.386;-2.352;2022-07-15T06:36:00;15.50;99.90
39255;DHT22;24957;51.386;-2.352;2022-07-15T06:38:26;15.70;99.90
39255;DHT22;24957;51.386;-2.352;2022-07-15T06:40:52;15.90;99.90
39255;DHT22;24957;51.386;-2.352;2022-07-15T06:43:18;16.10;99.90
39255;DHT22;24957;51.386;-2.352;2022-07-15T06:45:44;16.30;99.90
39255;DHT22;24957;51.386;-2.352;2022-07-15T06:48:10;16.40;99.90
39255;DHT22;24957;51.386;-2.352;2022-07-15T06:50:35;16.50;99.90
39255;DHT22;24957;51.386;-2.352;2022-07-15T06:53:01;16.70;99.90
39255;DHT22;24957;51.386;-2.352;2022-07-15T06:55:27;16.80;99.90
39255;DHT22;24957;51.386;-2.352;2022-07-15T06:57:53;17.00;99.90
39255;DHT22;24957;51.386;-2.352;2022-07-15T07:00:19;17.10;99.90
39255;DHT22;24957;51.386;-2.352;2022-07-15T07:02:45;17.20;99.90
39255;DHT22;24957;51.386;-2.352;2022-07-15T07:05:12;17.30;99.90
39255;DHT22;24957;51.386;-2.352;2022-07-15T07:07:37;17.30;99.90
39255;DHT22;24957;51.386;-2.352;2022-07-15T07:10:03;17.40;99.90
39255;DHT22;24957;51.386;-2.352;2022-07-15T07:12:29;17.60;99.90
39255;DHT22;24957;51.386;-2.352;2022-07-15T07:14:54;17.50;99.90
39255;DHT22;24957;51.386;-2.352;2022-07-15T07:17:20;17.50;99.90
39255;DHT22;24957;51.386;-2.352;2022-07-15T07:19:45;17.50;99.90
39255;DHT22;24957;51.386;-2.352;2022-07-15T07:22:11;17.50;99.90
39255;DHT22;24957;51.386;-2.352;2022-07-15T07:24:37;17.70;99.90
39255;DHT22;24957;51.386;-2.352;2022-07-15T07:27:02;17.80;99.90
39255;DHT22;24957;51.386;-2.352;2022-07-15T07:29:28;18.00;99.90
39255;DHT22;24957;51.386;-2.352;2022-07-15T07:31:54;17.90;99.90
39255;DHT22;24957;51.386;-2.352;2022-07-15T07:34:19;18.10;99.90
39255;DHT22;24957;51.386;-2.352;2022-07-15T07:36:45;18.30;99.90
39255;DHT22;24957;51.386;-2.352;2022-07-15T07:39:11;18.30;99.90
39255;DHT22;24957;51.386;-2.352;2022-07-15T07:41:40;18.60;99.90
39255;DHT22;24957;51.386;-2.352;2022-07-15T07:44:06;18.60;99.90
39255;DHT22;24957;51.386;-2.352;2022-07-15T07:46:32;18.80;99.90
39255;DHT22;24957;51.386;-2.352;2022-07-15T07:48:58;18.90;99.90
39255;DHT22;24957;51.386;-2.352;2022-07-15T07:51:23;18.90;99.90
39255;DHT22;24957;51.386;-2.352;2022-07-15T07:53:49;19.00;99.90
39255;DHT22;24957;51.386;-2.352;2022-07-15T07:56:15;19.00;99.90
39255;DHT22;24957;51.386;-2.352;2022-07-15T07:58:40;19.10;98.90
39255;DHT22;24957;51.386;-2.352;2022-07-15T08:01:06;19.30;96.10
39255;DHT22;24957;51.386;-2.352;2022-07-15T08:03:32;19.30;94.30
39255;DHT22;24957;51.386;-2.352;2022-07-15T08:05:58;19.40;94.30
39255;DHT22;24957;51.386;-2.352;2022-07-15T08:08:23;19.40;93.30
39255;DHT22;24957;51.386;-2.352;2022-07-15T08:10:50;19.60;93.70
39255;DHT22;24957;51.386;-2.352;2022-07-15T08:13:17;19.60;93.50
39255;DHT22;24957;51.386;-2.352;2022-07-15T08:15:43;19.50;93.70
39255;DHT22;24957;51.386;-2.352;2022-07-15T08:18:09;19.50;94.00
39255;DHT22;24957;51.386;-2.352;2022-07-15T08:20:34;19.50;93.70
39255;DHT22;24957;51.386;-2.352;2022-07-15T08:23:01;19.50;93.70
39255;DHT22;24957;51.386;-2.352;2022-07-15T08:25:27;19.60;92.90
39255;DHT22;24957;51.386;-2.352;2022-07-15T08:27:53;19.80;92.40
39255;DHT22;24957;51.386;-2.352;2022-07-15T08:30:19;19.90;90.10
39255;DHT22;24957;51.386;-2.352;2022-07-15T08:32:45;20.00;89.50
39255;DHT22;24957;51.386;-2.352;2022-07-15T08:35:10;19.90;89.10
39255;DHT22;24957;51.386;-2.352;2022-07-15T08:37:36;19.80;87.30
39255;DHT22;24957;51.386;-2.352;2022-07-15T08:40:03;19.80;88.50
39255;DHT22;24957;51.386;-2.352;2022-07-15T08:42:29;19.90;88.30
39255;DHT22;24957;51.386;-2.352;2022-07-15T08:44:55;19.80;88.10
39255;DHT22;24957;51.386;-2.352;2022-07-15T08:47:21;19.80;86.80
39255;DHT22;24957;51.386;-2.352;2022-07-15T08:49:47;19.80;86.10
39255;DHT22;24957;51.386;-2.352;2022-07-15T08:52:13;20.00;85.00
39255;DHT22;24957;51.386;-2.352;2022-07-15T08:54:39;20.00;85.20
39255;DHT22;24957;51.386;-2.352;2022-07-15T08:57:04;20.20;84.50
39255;DHT22;24957;51.386;-2.352;2022-07-15T08:59:30;20.30;83.00
39255;DHT22;24957;51.386;-2.352;2022-07-15T09:01:56;20.40;83.30
39255;DHT22;24957;51.386;-2.352;2022-07-15T09:04:21;20.50;83.10
39255;DHT22;24957;51.386;-2.352;2022-07-15T09:06:48;20.50;77.60
39255;DHT22;24957;51.386;-2.352;2022-07-15T09:14:24;20.40;75.40
39255;DHT22;24957;51.386;-2.352;2022-07-15T09:17:00;20.50;74.20
39255;DHT22;24957;51.386;-2.352;2022-07-15T09:19:29;20.50;74.70
39255;DHT22;24957;51.386;-2.352;2022-07-15T09:22:02;20.60;74.30
39255;DHT22;24957;51.386;-2.352;2022-07-15T09:24:28;20.80;73.80
39255;DHT22;24957;51.386;-2.352;2022-07-15T09:26:53;20.80;74.20
39255;DHT22;24957;51.386;-2.352;2022-07-15T09:29:19;20.70;72.10
39255;DHT22;24957;51.386;-2.352;2022-07-15T09:32:18;20.70;70.30
39255;DHT22;24957;51.386;-2.352;2022-07-15T09:35:06;20.80;70.40
39255;DHT22;24957;51.386;-2.352;2022-07-15T09:37:58;20.60;69.00
39255;DHT22;24957;51.386;-2.352;2022-07-15T09:40:24;20.60;69.10
39255;DHT22;24957;51.386;-2.352;2022-07-15T09:43:07;20.90;70.50
39255;DHT22;24957;51.386;-2.352;2022-07-15T09:45:33;21.00;70.40
39255;DHT22;24957;51.386;-2.352;2022-07-15T09:48:09;20.90;70.00
39255;DHT22;24957;51.386;-2.352;2022-07-15T09:50:35;20.80;72.00
39255;DHT22;24957;51.386;-2.352;2022-07-15T09:53:11;20.80;72.30
39255;DHT22;24957;51.386;-2.352;2022-07-15T09:55:37;20.80;73.00
39255;DHT22;24957;51.386;-2.352;2022-07-15T09:58:03;20.80;73.70
39255;DHT22;24957;51.386;-2.352;2022-07-15T10:00:31;20.80;74.30
39255;DHT22;24957;51.386;-2.352;2022-07-15T10:02:56;20.90;75.30
39255;DHT22;24957;51.386;-2.352;2022-07-15T10:05:22;21.00;77.20
39255;DHT22;24957;51.386;-2.352;2022-07-15T10:07:51;21.50;76.60
39255;DHT22;24957;51.386;-2.352;2022-07-15T10:10:19;21.60;74.20
39255;DHT22;24957;51.386;-2.352;2022-07-15T10:15:13;21.40;76.30
39255;DHT22;24957;51.386;-2.352;2022-07-15T10:17:50;21.40;76.30
39255;DHT22;24957;51.386;-2.352;2022-07-15T10:20:27;21.50;76.50
39255;DHT22;24957;51.386;-2.352;2022-07-15T10:23:02;21.50;75.80
39255;DHT22;24957;51.386;-2.352;2022-07-15T10:25:35;21.40;75.90
39255;DHT22;24957;51.386;-2.352;2022-07-15T10:28:12;21.30;75.20
39255;DHT22;24957;51.386;-2.352;2022-07-15T10:30:41;21.50;74.30
39255;DHT22;24957;51.386;-2.352;2022-07-15T10:35:46;21.70;74.70
39255;DHT22;24957;51.386;-2.352;2022-07-15T10:38:22;21.60;73.90
39255;DHT22;24957;51.386;-2.352;2022-07-15T10:43:46;21.60;75.20
39255;DHT22;24957;51.386;-2.352;2022-07-15T10:48:41;21.40;76.10
39255;DHT22;24957;51.386;-2.352;2022-07-15T10:51:06;21.60;76.90
39255;DHT22;24957;51.386;-2.352;2022-07-15T10:53:32;21.80;76.20
39255;DHT22;24957;51.386;-2.352;2022-07-15T10:59:06;22.20;73.10
39255;DHT22;24957;51.386;-2.352;2022-07-15T11:01:32;22.50;74.60
39255;DHT22;24957;51.386;-2.352;2022-07-15T11:12:07;22.20;70.60
39255;DHT22;24957;51.386;-2.352;2022-07-15T11:14:40;22.10;70.10
39255;DHT22;24957;51.386;-2.352;2022-07-15T11:17:07;22.20;69.60
39255;DHT22;24957;51.386;-2.352;2022-07-15T11:19:33;22.20;70.40
39255;DHT22;24957;51.386;-2.352;2022-07-15T11:22:00;22.00;70.50
39255;DHT22;24957;51.386;-2.352;2022-07-15T11:24:27;22.10;70.50
39255;DHT22;24957;51.386;-2.352;2022-07-15T11:26:53;22.20;69.90
39255;DHT22;24957;51.386;-2.352;2022-07-15T11:29:19;22.40;69.30
39255;DHT22;24957;51.386;-2.352;2022-07-15T11:31:47;22.60;68.70
39255;DHT22;24957;51.386;-2.352;2022-07-15T11:34:13;22.80;68.50
39255;DHT22;24957;51.386;-2.352;2022-07-15T11:36:39;22.70;69.80
39255;DHT22;24957;51.386;-2.352;2022-07-15T11:39:04;22.60;69.20
39255;DHT22;24957;51.386;-2.352;2022-07-15T11:41:30;22.60;70.20
39255;DHT22;24957;51.386;-2.352;2022-07-15T11:44:14;22.70;69.20
39255;DHT22;24957;51.386;-2.352;2022-07-15T11:46:56;22.50;69.50
39255;DHT22;24957;51.386;-2.352;2022-07-15T11:51:50;23.00;69.10
39255;DHT22;24957;51.386;-2.352;2022-07-15T11:54:17;23.20;68.00
39255;DHT22;24957;51.386;-2.352;2022-07-15T11:56:43;23.40;66.80
39255;DHT22;24957;51.386;-2.352;2022-07-15T11:59:08;23.50;67.40
39255;DHT22;24957;51.386;-2.352;2022-07-15T12:01:34;23.40;66.70
39255;DHT22;24957;51.386;-2.352;2022-07-15T12:04:00;23.20;66.90
39255;DHT22;24957;51.386;-2.352;2022-07-15T12:06:29;23.20;68.00
39255;DHT22;24957;51.386;-2.352;2022-07-15T12:08:56;23.20;67.80
39255;DHT22;24957;51.386;-2.352;2022-07-15T12:11:32;22.90;69.20
39255;DHT22;24957;51.386;-2.352;2022-07-15T12:14:10;22.80;69.80
39255;DHT22;24957;51.386;-2.352;2022-07-15T12:19:27;22.80;70.60
39255;DHT22;24957;51.386;-2.352;2022-07-15T12:21:52;22.90;71.10
39255;DHT22;24957;51.386;-2.352;2022-07-15T12:24:21;23.00;71.10
39255;DHT22;24957;51.386;-2.352;2022-07-15T12:29:18;22.90;73.00
39255;DHT22;24957;51.386;-2.352;2022-07-15T12:31:57;23.10;73.10
39255;DHT22;24957;51.386;-2.352;2022-07-15T12:35:09;23.20;73.50
39255;DHT22;24957;51.386;-2.352;2022-07-15T12:37:09;23.20;73.20
39255;DHT22;24957;51.386;-2.352;2022-07-15T12:39:52;23.30;73.50
39255;DHT22;24957;51.386;-2.352;2022-07-15T12:42:18;23.40;74.10
39255;DHT22;24957;51.386;-2.352;2022-07-15T12:44:43;23.50;74.40
39255;DHT22;24957;51.386;-2.352;2022-07-15T12:47:09;23.50;74.60
39255;DHT22;24957;51.386;-2.352;2022-07-15T12:54:41;23.30;75.70
39255;DHT22;24957;51.386;-2.352;2022-07-15T12:57:17;23.40;75.30
39255;DHT22;24957;51.386;-2.352;2022-07-15T13:02:58;23.60;74.90
39255;DHT22;24957;51.386;-2.352;2022-07-15T13:05:25;23.50;75.00
39255;DHT22;24957;51.386;-2.352;2022-07-15T13:07:50;23.70;74.40
39255;DHT22;24957;51.386;-2.352;2022-07-15T13:10:16;23.60;74.40
39255;DHT22;24957;51.386;-2.352;2022-07-15T13:12:42;23.60;74.20
39255;DHT22;24957;51.386;-2.352;2022-07-15T13:15:07;23.50;74.10
39255;DHT22;24957;51.386;-2.352;2022-07-15T13:17:33;23.60;73.70
39255;DHT22;24957;51.386;-2.352;2022-07-15T13:20:00;23.60;73.00
39255;DHT22;24957;51.386;-2.352;2022-07-15T13:22:26;23.70;72.60
39255;DHT22;24957;51.386;-2.352;2022-07-15T13:24:54;23.80;73.30
39255;DHT22;24957;51.386;-2.352;2022-07-15T13:27:19;23.60;74.70
39255;DHT22;24957;51.386;-2.352;2022-07-15T13:29:45;23.40;75.30
39255;DHT22;24957;51.386;-2.352;2022-07-15T13:32:11;23.60;75.20
39255;DHT22;24957;51.386;-2.352;2022-07-15T13:34:36;23.80;75.60
39255;DHT22;24957;51.386;-2.352;2022-07-15T13:37:02;23.70;75.10
39255;DHT22;24957;51.386;-2.352;2022-07-15T13:39:27;23.50;77.00
39255;DHT22;24957;51.386;-2.352;2022-07-15T13:41:53;23.40;78.00
39255;DHT22;24957;51.386;-2.352;2022-07-15T13:44:18;23.40;76.80
39255;DHT22;24957;51.386;-2.352;2022-07-15T13:46:44;23.50;77.50
39255;DHT22;24957;51.386;-2.352;2022-07-15T13:49:10;23.70;77.70
39255;DHT22;24957;51.386;-2.352;2022-07-15T13:51:35;23.70;77.30
39255;DHT22;24957;51.386;-2.352;2022-07-15T13:54:05;24.00;74.80
39255;DHT22;24957;51.386;-2.352;2022-07-15T13:56:31;24.00;75.20
39255;DHT22;24957;51.386;-2.352;2022-07-15T13:58:57;24.30;73.10
39255;DHT22;24957;51.386;-2.352;2022-07-15T14:01:25;24.60;71.00
39255;DHT22;24957;51.386;-2.352;2022-07-15T14:03:52;24.20;70.70
39255;DHT22;24957;51.386;-2.352;2022-07-15T14:06:17;24.10;71.40
39255;DHT22;24957;51.386;-2.352;2022-07-15T14:08:43;24.10;70.30
39255;DHT22;24957;51.386;-2.352;2022-07-15T14:11:08;24.00;70.80
39255;DHT22;24957;51.386;-2.352;2022-07-15T14:13:34;24.10;72.00
39255;DHT22;24957;51.386;-2.352;2022-07-15T14:16:00;24.00;72.90
39255;DHT22;24957;51.386;-2.352;2022-07-15T14:18:25;24.00;73.00
39255;DHT22;24957;51.386;-2.352;2022-07-15T14:21:10;24.10;72.30
39255;DHT22;24957;51.386;-2.352;2022-07-15T14:23:36;24.20;71.50
39255;DHT22;24957;51.386;-2.352;2022-07-15T14:26:02;24.20;70.10
39255;DHT22;24957;51.386;-2.352;2022-07-15T14:28:28;24.20;70.20
39255;DHT22;24957;51.386;-2.352;2022-07-15T14:30:54;24.20;69.50
39255;DHT22;24957;51.386;-2.352;2022-07-15T14:33:19;24.50;70.20
39255;DHT22;24957;51.386;-2.352;2022-07-15T14:35:45;24.40;70.30
39255;DHT22;24957;51.386;-2.352;2022-07-15T14:38:11;24.20;71.20
39255;DHT22;24957;51.386;-2.352;2022-07-15T14:40:37;24.10;71.80
39255;DHT22;24957;51.386;-2.352;2022-07-15T14:43:02;23.90;72.60
39255;DHT22;24957;51.386;-2.352;2022-07-15T14:45:28;23.80;72.60
39255;DHT22;24957;51.386;-2.352;2022-07-15T14:47:54;23.70;73.10
39255;DHT22;24957;51.386;-2.352;2022-07-15T14:50:19;23.90;72.60
39255;DHT22;24957;51.386;-2.352;2022-07-15T14:52:45;24.90;69.60
39255;DHT22;24957;51.386;-2.352;2022-07-15T14:55:10;24.80;69.60
39255;DHT22;24957;51.386;-2.352;2022-07-15T14:57:36;24.80;70.20
39255;DHT22;24957;51.386;-2.352;2022-07-15T15:00:02;24.50;70.10
39255;DHT22;24957;51.386;-2.352;2022-07-15T15:02:28;24.50;70.10
39255;DHT22;24957;51.386;-2.352;2022-07-15T15:04:53;24.70;70.30
39255;DHT22;24957;51.386;-2.352;2022-07-15T15:07:19;25.60;68.00
39255;DHT22;24957;51.386;-2.352;2022-07-15T15:09:45;26.30;65.20
39255;DHT22;24957;51.386;-2.352;2022-07-15T15:12:10;27.10;62.90
39255;DHT22;24957;51.386;-2.352;2022-07-15T15:14:36;27.60;61.80
39255;DHT22;24957;51.386;-2.352;2022-07-15T15:17:01;26.60;63.00
39255;DHT22;24957;51.386;-2.352;2022-07-15T15:19:27;26.00;65.10
39255;DHT22;24957;51.386;-2.352;2022-07-15T15:21:53;25.70;66.10
39255;DHT22;24957;51.386;-2.352;2022-07-15T15:24:18;26.50;64.60
39255;DHT22;24957;51.386;-2.352;2022-07-15T15:26:44;26.80;63.30
39255;DHT22;24957;51.386;-2.352;2022-07-15T15:29:09;26.60;63.50
39255;DHT22;24957;51.386;-2.352;2022-07-15T15:31:35;26.50;63.70
39255;DHT22;24957;51.386;-2.352;2022-07-15T15:34:01;26.60;64.10
39255;DHT22;24957;51.386;-2.352;2022-07-15T15:36:27;26.80;63.50
39255;DHT22;24957;51.386;-2.352;2022-07-15T15:38:52;27.10;62.90
39255;DHT22;24957;51.386;-2.352;2022-07-15T15:41:18;26.60;63.50
39255;DHT22;24957;51.386;-2.352;2022-07-15T15:43:44;26.10;64.20
39255;DHT22;24957;51.386;-2.352;2022-07-15T15:46:09;26.00;65.10
39255;DHT22;24957;51.386;-2.352;2022-07-15T15:48:35;25.80;64.90
39255;DHT22;24957;51.386;-2.352;2022-07-15T15:51:00;25.60;66.10
39255;DHT22;24957;51.386;-2.352;2022-07-15T15:53:26;25.80;66.30
39255;DHT22;24957;51.386;-2.352;2022-07-15T15:55:52;26.60;65.30